CPA450 VHHH-RCTP
Flight info
| Callsign | CPA450 |
|---|---|
| Flight time | N/A |
| Altitude | 35000 |
| Route | DALO1C DALOL V631 ENVAR M750 EXTRA/N0475F290 M750 TONGA TONG1A |
| Aircraft | B744/H-V/N |
Departure
| Time | 2026-04-30 14:21 |
|---|---|
| Airport | Hong Kong International Airport (VHHH) |
Arrival
| Time | N/A |
|---|---|
| Airport | Taiwan Taoyuan International Airport (RCTP) |
| Time | Latitude | Longitude | Altitude | Speed | Heading |
|---|---|---|---|---|---|
| 2026-04-30 13:47 | 22.31109 | 113.92749 | 41 ft | 0 kts | 297° |
| 2026-04-30 14:11 | 22.31106 | 113.92756 | 41 ft | 2 kts | 297° |
| 2026-04-30 14:11 | 22.31096 | 113.92777 | 41 ft | 2 kts | 297° |
| 2026-04-30 14:11 | 22.31087 | 113.92791 | 41 ft | 2 kts | 316° |
| 2026-04-30 14:11 | 22.31073 | 113.92800 | 41 ft | 2 kts | 349° |
| 2026-04-30 14:12 | 22.31059 | 113.92800 | 41 ft | 1 kts | 16° |
| 2026-04-30 14:12 | 22.31058 | 113.92799 | 41 ft | 0 kts | 17° |
| 2026-04-30 14:16 | 22.31099 | 113.92823 | 41 ft | 10 kts | 34° |
| 2026-04-30 14:16 | 22.31151 | 113.92867 | 41 ft | 9 kts | 46° |
| 2026-04-30 14:16 | 22.31187 | 113.92922 | 41 ft | 9 kts | 62° |
| 2026-04-30 14:17 | 22.31209 | 113.92983 | 41 ft | 9 kts | 71° |
| 2026-04-30 14:17 | 22.31222 | 113.93023 | 41 ft | 8 kts | 76° |
| 2026-04-30 14:17 | 22.31209 | 113.93079 | 41 ft | 8 kts | 138° |
| 2026-04-30 14:17 | 22.31143 | 113.93104 | 41 ft | 7 kts | 163° |
| 2026-04-30 14:18 | 22.31095 | 113.93119 | 41 ft | 7 kts | 163° |
| 2026-04-30 14:18 | 22.31064 | 113.93129 | 41 ft | 7 kts | 163° |
| 2026-04-30 14:18 | 22.30977 | 113.93164 | 41 ft | 7 kts | 155° |
| 2026-04-30 14:19 | 22.30897 | 113.93204 | 41 ft | 6 kts | 155° |
| 2026-04-30 14:19 | 22.30859 | 113.93222 | 41 ft | 6 kts | 166° |
| 2026-04-30 14:19 | 22.30814 | 113.93228 | 41 ft | 10 kts | 182° |
| 2026-04-30 14:20 | 22.30717 | 113.93177 | 41 ft | 17 kts | 234° |
| 2026-04-30 14:20 | 22.30669 | 113.93047 | 41 ft | 32 kts | 250° |
| 2026-04-30 14:20 | 22.30124 | 113.91352 | 220 ft | 189 kts | 251° |
| 2026-04-30 14:21 | 22.29679 | 113.89976 | 1324 ft | 197 kts | 250° |
| 2026-04-30 14:21 | 22.29239 | 113.88620 | 2215 ft | 194 kts | 251° |
| 2026-04-30 14:21 | 22.28171 | 113.85823 | 3312 ft | 208 kts | 241° |
| 2026-04-30 14:22 | 22.27394 | 113.84478 | 3855 ft | 214 kts | 237° |
| 2026-04-30 14:22 | 22.25483 | 113.81928 | 5024 ft | 224 kts | 214° |
| 2026-04-30 14:22 | 22.24007 | 113.81353 | 5631 ft | 231 kts | 196° |
| 2026-04-30 14:23 | 22.20468 | 113.81238 | 6118 ft | 286 kts | 166° |
| 2026-04-30 14:23 | 22.17180 | 113.83687 | 7965 ft | 292 kts | 137° |
| 2026-04-30 14:24 | 22.15147 | 113.87572 | 9503 ft | 305 kts | 114° |
| 2026-04-30 14:24 | 22.14397 | 113.89742 | 10176 ft | 313 kts | 111° |
| 2026-04-30 14:25 | 22.13364 | 113.94647 | 10727 ft | 362 kts | 97° |
| 2026-04-30 14:25 | 22.12952 | 114.00423 | 11333 ft | 407 kts | 95° |
| 2026-04-30 14:26 | 22.12367 | 114.06618 | 12950 ft | 421 kts | 98° |
| 2026-04-30 14:26 | 22.11881 | 114.09749 | 13798 ft | 426 kts | 101° |
| 2026-04-30 14:26 | 22.10741 | 114.16099 | 15405 ft | 436 kts | 101° |
| 2026-04-30 14:27 | 22.10187 | 114.19335 | 16176 ft | 441 kts | 101° |
| 2026-04-30 14:27 | 22.09631 | 114.22598 | 16922 ft | 446 kts | 101° |
| 2026-04-30 14:27 | 22.09073 | 114.25905 | 17649 ft | 451 kts | 101° |
| 2026-04-30 14:28 | 22.07929 | 114.32577 | 19030 ft | 460 kts | 103° |
| 2026-04-30 14:28 | 22.06895 | 114.35843 | 19680 ft | 462 kts | 115° |
| 2026-04-30 14:28 | 22.05430 | 114.38940 | 20327 ft | 466 kts | 120° |
| 2026-04-30 14:28 | 22.03729 | 114.41925 | 20970 ft | 469 kts | 125° |
| 2026-04-30 14:29 | 21.99950 | 114.47728 | 22198 ft | 477 kts | 126° |
| 2026-04-30 14:29 | 21.96178 | 114.53691 | 23383 ft | 485 kts | 126° |
| 2026-04-30 14:30 | 21.90004 | 114.62474 | 25023 ft | 496 kts | 129° |
| 2026-04-30 14:31 | 21.85789 | 114.68422 | 26056 ft | 503 kts | 129° |
| 2026-04-30 14:31 | 21.81519 | 114.74463 | 27016 ft | 510 kts | 129° |
| 2026-04-30 14:31 | 21.79363 | 114.77514 | 27462 ft | 514 kts | 129° |
| 2026-04-30 14:32 | 21.75651 | 114.84053 | 28329 ft | 522 kts | 110° |
| 2026-04-30 14:32 | 21.74856 | 114.87858 | 28994 ft | 520 kts | 99° |
| 2026-04-30 14:32 | 21.74448 | 114.91721 | 29615 ft | 519 kts | 95° |
| 2026-04-30 14:33 | 21.74274 | 114.95592 | 30152 ft | 519 kts | 91° |
| 2026-04-30 14:33 | 21.74343 | 115.03343 | 31215 ft | 517 kts | 89° |
| 2026-04-30 14:33 | 21.74361 | 115.07198 | 31714 ft | 515 kts | 90° |
| 2026-04-30 14:34 | 21.74359 | 115.11053 | 32194 ft | 514 kts | 90° |
| 2026-04-30 14:34 | 21.74353 | 115.14903 | 32655 ft | 514 kts | 90° |
| 2026-04-30 14:34 | 21.74346 | 115.18742 | 33097 ft | 513 kts | 90° |
| 2026-04-30 14:34 | 21.74339 | 115.22566 | 33521 ft | 512 kts | 90° |
| 2026-04-30 14:35 | 21.74343 | 115.30222 | 34322 ft | 510 kts | 90° |
| 2026-04-30 14:35 | 21.74334 | 115.33983 | 34695 ft | 509 kts | 90° |
| 2026-04-30 14:35 | 21.74322 | 115.37796 | 34939 ft | 510 kts | 90° |
| 2026-04-30 14:36 | 21.74308 | 115.41617 | 34989 ft | 510 kts | 90° |
| 2026-04-30 14:36 | 21.74279 | 115.49238 | 34997 ft | 509 kts | 90° |
| 2026-04-30 14:37 | 21.74249 | 115.56848 | 34997 ft | 509 kts | 90° |
| 2026-04-30 14:37 | 21.74217 | 115.64464 | 34997 ft | 509 kts | 90° |
| 2026-04-30 14:38 | 21.74179 | 115.72079 | 34997 ft | 509 kts | 90° |
| 2026-04-30 14:38 | 21.74137 | 115.79698 | 34997 ft | 509 kts | 90° |
| 2026-04-30 14:39 | 21.74091 | 115.87268 | 34997 ft | 509 kts | 90° |
| 2026-04-30 14:39 | 21.74042 | 115.94884 | 34997 ft | 509 kts | 90° |
| 2026-04-30 14:40 | 21.74003 | 116.06283 | 34997 ft | 509 kts | 90° |
| 2026-04-30 14:40 | 21.73958 | 116.13897 | 34997 ft | 509 kts | 90° |
| 2026-04-30 14:41 | 21.73907 | 116.21513 | 34997 ft | 509 kts | 90° |
| 2026-04-30 14:41 | 21.73851 | 116.29127 | 34997 ft | 509 kts | 90° |
| 2026-04-30 14:42 | 21.73792 | 116.36689 | 34997 ft | 509 kts | 90° |
| 2026-04-30 14:42 | 21.73731 | 116.44310 | 34997 ft | 509 kts | 90° |
| 2026-04-30 14:43 | 21.73681 | 116.51927 | 34997 ft | 509 kts | 90° |
| 2026-04-30 14:43 | 21.73606 | 116.59540 | 34997 ft | 509 kts | 90° |
| 2026-04-30 14:44 | 21.73526 | 116.67113 | 34997 ft | 509 kts | 90° |
| 2026-04-30 14:44 | 21.73451 | 116.74733 | 34994 ft | 509 kts | 89° |
| 2026-04-30 14:45 | 21.73900 | 116.78503 | 35004 ft | 508 kts | 77° |
| 2026-04-30 14:45 | 21.74801 | 116.82179 | 35002 ft | 508 kts | 72° |
| 2026-04-30 14:45 | 21.77187 | 116.89302 | 34997 ft | 507 kts | 67° |
| 2026-04-30 14:46 | 21.79823 | 116.96345 | 34997 ft | 507 kts | 67° |
| 2026-04-30 14:46 | 21.82397 | 117.03407 | 34997 ft | 507 kts | 68° |
| 2026-04-30 14:47 | 21.84935 | 117.10439 | 34997 ft | 507 kts | 68° |
| 2026-04-30 14:47 | 21.87503 | 117.17517 | 34997 ft | 507 kts | 67° |
| 2026-04-30 14:48 | 21.90076 | 117.24589 | 34997 ft | 507 kts | 68° |
| 2026-04-30 14:48 | 21.92619 | 117.31678 | 34997 ft | 507 kts | 68° |
| 2026-04-30 14:49 | 21.95168 | 117.38806 | 34998 ft | 516 kts | 68° |
| 2026-04-30 14:49 | 21.97761 | 117.46063 | 34997 ft | 529 kts | 68° |
| 2026-04-30 14:50 | 22.02874 | 117.56799 | 34997 ft | 541 kts | 57° |
| 2026-04-30 14:51 | 22.08841 | 117.67073 | 34997 ft | 540 kts | 57° |
| 2026-04-30 14:52 | 22.14762 | 117.77447 | 34997 ft | 540 kts | 57° |
| 2026-04-30 14:52 | 22.20629 | 117.87836 | 34997 ft | 540 kts | 57° |
| 2026-04-30 14:53 | 22.26471 | 117.98200 | 34997 ft | 540 kts | 57° |
| 2026-04-30 14:54 | 22.34459 | 118.11952 | 34997 ft | 540 kts | 56° |
| 2026-04-30 14:55 | 22.40437 | 118.22230 | 34997 ft | 540 kts | 57° |
| 2026-04-30 14:56 | 22.48325 | 118.36057 | 34997 ft | 540 kts | 57° |
| 2026-04-30 14:57 | 22.54233 | 118.46447 | 34997 ft | 540 kts | 57° |
| 2026-04-30 14:58 | 22.62105 | 118.60255 | 34997 ft | 540 kts | 57° |
| 2026-04-30 14:58 | 22.68017 | 118.70651 | 34997 ft | 540 kts | 57° |
| 2026-04-30 15:00 | 22.77175 | 118.86823 | 34997 ft | 540 kts | 57° |
| 2026-04-30 15:01 | 22.85657 | 119.01849 | 34997 ft | 540 kts | 57° |
| 2026-04-30 15:01 | 22.91541 | 119.12300 | 34997 ft | 540 kts | 57° |
| 2026-04-30 15:02 | 22.95455 | 119.19264 | 34997 ft | 540 kts | 57° |
| 2026-04-30 15:03 | 23.04580 | 119.35498 | 34997 ft | 540 kts | 57° |
| 2026-04-30 15:04 | 23.14950 | 119.54083 | 34936 ft | 539 kts | 57° |
| 2026-04-30 15:05 | 23.22971 | 119.62376 | 34918 ft | 536 kts | 32° |
| 2026-04-30 15:06 | 23.28299 | 119.65871 | 34918 ft | 540 kts | 27° |
| 2026-04-30 15:07 | 23.41463 | 119.74036 | 34903 ft | 542 kts | 28° |
| 2026-04-30 15:08 | 23.54264 | 119.82407 | 34669 ft | 534 kts | 30° |
| 2026-04-30 15:08 | 23.63559 | 119.88876 | 32836 ft | 519 kts | 30° |
| 2026-04-30 15:09 | 23.69582 | 119.93041 | 31598 ft | 507 kts | 30° |
| 2026-04-30 15:09 | 23.75478 | 119.97118 | 30374 ft | 496 kts | 30° |
| 2026-04-30 15:10 | 23.81260 | 120.01100 | 29189 ft | 487 kts | 30° |
| 2026-04-30 15:11 | 23.92474 | 120.08842 | 26875 ft | 470 kts | 30° |
| 2026-04-30 15:11 | 23.97956 | 120.12647 | 25726 ft | 462 kts | 30° |
| 2026-04-30 15:12 | 24.05973 | 120.18220 | 24023 ft | 450 kts | 30° |
| 2026-04-30 15:13 | 24.11223 | 120.21871 | 22895 ft | 443 kts | 30° |
| 2026-04-30 15:14 | 24.21467 | 120.29005 | 20672 ft | 429 kts | 30° |
| 2026-04-30 15:14 | 24.28911 | 120.34201 | 19042 ft | 419 kts | 30° |
| 2026-04-30 15:16 | 24.40986 | 120.42638 | 16384 ft | 403 kts | 29° |
| 2026-04-30 15:17 | 24.50328 | 120.49151 | 14311 ft | 392 kts | 30° |
| 2026-04-30 15:18 | 24.61582 | 120.57055 | 11778 ft | 378 kts | 30° |
| 2026-04-30 15:19 | 24.68051 | 120.61743 | 10772 ft | 357 kts | 34° |